Time;durP1;ratioP1;P1;durP2;ratioP2;P2;SDS_P1;SDS_P2;PMS_P1;PMS_P2;Temp;Humidity;BMP_temperature;BMP_pressure;BME280_temperature;BME280_humidity;BME280_pressure;Samples;Min_cycle;Max_cycle;Signal;HPM_P1;HPM_P2
2021/12/15 00:02:18;;;;;;;110.70;44.10;;;10.30;99.90;;;;;;4999416;28;20099;-86
2021/12/15 00:04:45;;;;;;;118.38;45.58;;;10.40;99.90;;;;;;5007723;28;20883;-86
2021/12/15 00:07:12;;;;;;;122.82;44.08;;;10.30;99.90;;;;;;4979381;28;20823;-86
2021/12/15 00:09:38;;;;;;;116.03;44.53;;;10.40;99.90;;;;;;4983922;28;20870;-86
2021/12/15 00:12:05;;;;;;;109.70;43.67;;;10.40;99.90;;;;;;5002938;28;20173;-86
2021/12/15 00:14:33;;;;;;;118.55;44.25;;;10.40;99.90;;;;;;5010390;28;20078;-85
2021/12/15 00:16:59;;;;;;;109.65;44.95;;;10.40;99.90;;;;;;4994114;28;20199;-85
2021/12/15 00:19:27;;;;;;;114.18;44.35;;;10.40;99.90;;;;;;5007548;28;20150;-86
2021/12/15 00:21:54;;;;;;;120.70;43.10;;;10.40;99.90;;;;;;4984440;28;20075;-86
2021/12/15 00:24:20;;;;;;;102.68;43.83;;;10.40;99.90;;;;;;5009152;28;20370;-85
2021/12/15 00:26:45;;;;;;;119.80;43.75;;;10.40;99.90;;;;;;4998289;28;20836;-86
2021/12/15 00:29:11;;;;;;;107.43;42.08;;;10.40;99.90;;;;;;5011950;28;20104;-85
2021/12/15 00:31:37;;;;;;;109.18;43.58;;;10.40;99.90;;;;;;4990507;28;20470;-85
2021/12/15 00:34:07;;;;;;;105.43;42.83;;;10.40;99.90;;;;;;4984102;28;20054;-85
2021/12/15 00:36:33;;;;;;;108.82;41.72;;;10.40;99.90;;;;;;5006203;28;20393;-86
2021/12/15 00:39:00;;;;;;;103.25;41.83;;;10.40;99.90;;;;;;4990093;28;20044;-85
2021/12/15 00:41:26;;;;;;;111.72;42.00;;;10.40;99.90;;;;;;4985718;28;20061;-86
2021/12/15 00:43:52;;;;;;;110.05;41.92;;;10.40;99.90;;;;;;5007412;28;20035;-85
2021/12/15 00:46:18;;;;;;;110.13;40.53;;;10.40;99.90;;;;;;4969413;28;20082;-86
2021/12/15 00:48:45;;;;;;;107.53;40.08;;;10.40;99.90;;;;;;4987662;28;20802;-85
2021/12/15 00:51:11;;;;;;;102.82;41.10;;;10.40;99.90;;;;;;4990545;28;20239;-86
2021/12/15 00:53:37;;;;;;;116.15;39.90;;;10.40;99.90;;;;;;5009009;28;20449;-85
2021/12/15 00:56:03;;;;;;;112.13;41.13;;;10.40;99.90;;;;;;4980263;28;20112;-86
2021/12/15 00:58:29;;;;;;;111.75;39.50;;;10.40;99.90;;;;;;5006555;28;20055;-87
2021/12/15 01:00:59;;;;;;;113.55;39.50;;;10.40;99.90;;;;;;4991734;28;20044;-85
2021/12/15 01:03:26;;;;;;;113.32;40.53;;;10.40;99.90;;;;;;5013651;28;20039;-86
2021/12/15 01:05:59;;;;;;;112.60;40.63;;;10.40;99.90;;;;;;4988198;28;20531;-86
2021/12/15 01:08:28;;;;;;;101.28;38.78;;;10.40;99.90;;;;;;5011095;28;20043;-85
2021/12/15 01:11:08;;;;;;;106.80;39.72;;;10.40;99.90;;;;;;5028056;28;20055;-85
2021/12/15 01:19:49;;;;;;;103.03;39.60;;;10.40;99.90;;;;;;4987415;28;20263;-87
2021/12/15 01:22:20;;;;;;;100.70;38.65;;;10.40;99.90;;;;;;4963192;28;20055;-85
2021/12/15 01:24:47;;;;;;;110.63;39.08;;;10.30;99.90;;;;;;4974558;28;20161;-86
2021/12/15 01:27:16;;;;;;;106.82;38.75;;;10.40;99.90;;;;;;4965463;28;20373;-86
2021/12/15 01:29:42;;;;;;;116.20;39.22;;;10.40;99.90;;;;;;4980302;28;20117;-87
2021/12/15 01:32:08;;;;;;;104.85;38.00;;;10.40;99.90;;;;;;4982124;28;20061;-86
2021/12/15 01:34:34;;;;;;;106.28;38.33;;;10.30;99.90;;;;;;4955717;28;20048;-86
2021/12/15 01:37:00;;;;;;;109.57;37.67;;;10.30;99.90;;;;;;4976718;28;20044;-87
2021/12/15 01:39:26;;;;;;;112.13;37.65;;;10.30;99.90;;;;;;4988519;28;20040;-86
2021/12/15 01:41:55;;;;;;;109.28;37.72;;;10.30;99.90;;;;;;5005432;28;20048;-87
2021/12/15 01:46:56;;;;;;;112.20;38.33;;;10.30;99.90;;;;;;4982293;28;20138;-86
2021/12/15 01:49:26;;;;;;;93.15;35.83;;;10.30;99.90;;;;;;4988416;28;20044;-86
2021/12/15 01:51:52;;;;;;;104.20;37.45;;;10.30;99.90;;;;;;4989904;28;20548;-86
2021/12/15 01:54:20;;;;;;;100.25;35.05;;;10.30;99.90;;;;;;4970775;28;20039;-86
2021/12/15 01:56:46;;;;;;;107.20;37.92;;;10.30;99.90;;;;;;4979020;28;20265;-87
2021/12/15 01:59:14;;;;;;;90.97;34.92;;;10.30;99.90;;;;;;4986578;28;20526;-87
2021/12/15 02:01:40;;;;;;;103.63;36.47;;;10.30;99.90;;;;;;4970959;28;20141;-88
2021/12/15 02:04:07;;;;;;;96.95;35.25;;;10.30;99.90;;;;;;4980007;28;20052;-87
2021/12/15 02:06:33;;;;;;;93.68;36.17;;;10.30;99.90;;;;;;4978833;28;20389;-86
2021/12/15 02:09:00;;;;;;;99.07;35.10;;;10.20;99.90;;;;;;4973648;28;20087;-87
2021/12/15 02:11:26;;;;;;;94.18;34.92;;;10.30;99.90;;;;;;4988397;28;20826;-86
2021/12/15 02:13:53;;;;;;;92.43;35.95;;;10.20;99.90;;;;;;4971419;28;20043;-86
2021/12/15 02:16:18;;;;;;;92.10;35.60;;;10.20;99.90;;;;;;4992022;28;20723;-85
2021/12/15 02:18:45;;;;;;;92.43;36.17;;;10.20;99.90;;;;;;4992860;28;20047;-85
2021/12/15 02:21:17;;;;;;;103.68;37.25;;;10.30;99.90;;;;;;4980535;28;20040;-86
2021/12/15 02:23:50;;;;;;;104.50;37.85;;;10.30;99.90;;;;;;5003148;28;20560;-87
2021/12/15 02:26:20;;;;;;;100.82;37.35;;;10.20;99.90;;;;;;4986313;28;20043;-84
2021/12/15 02:28:51;;;;;;;97.93;37.10;;;10.20;99.90;;;;;;5010816;28;20462;-87
2021/12/15 02:31:35;;;;;;;105.10;37.20;;;10.30;99.90;;;;;;4992680;28;20035;-86
2021/12/15 02:39:20;;;;;;;100.88;39.33;;;10.20;99.90;;;;;;5005718;28;20088;-86
2021/12/15 02:41:47;;;;;;;98.10;37.78;;;10.20;99.90;;;;;;4987639;28;20044;-86
2021/12/15 02:44:17;;;;;;;98.20;36.92;;;10.20;99.90;;;;;;4969574;28;20040;-87
2021/12/15 02:46:44;;;;;;;105.32;36.78;;;10.20;99.90;;;;;;4984805;28;20521;-85
2021/12/15 02:49:13;;;;;;;88.28;35.97;;;10.20;99.90;;;;;;4991854;28;20281;-86
2021/12/15 02:51:41;;;;;;;86.60;35.97;;;10.20;99.90;;;;;;5016848;28;20047;-86
2021/12/15 02:54:11;;;;;;;92.20;36.33;;;10.20;99.90;;;;;;4995808;28;20514;-87
2021/12/15 02:56:37;;;;;;;88.78;35.88;;;10.20;99.90;;;;;;4993147;28;20039;-87
2021/12/15 02:59:06;;;;;;;85.22;34.42;;;10.20;99.90;;;;;;5007334;28;20104;-86
2021/12/15 03:15:33;;;;;;;;;;;10.20;99.90;;;;;;5010675;28;20059;-86
2021/12/15 03:18:10;;;;;;;103.00;39.53;;;10.10;99.90;;;;;;5023687;28;19923;-86
2021/12/15 03:20:49;;;;;;;98.85;39.13;;;10.10;99.90;;;;;;5027465;28;20051;-86
2021/12/15 03:23:34;;;;;;;104.97;39.92;;;10.10;99.90;;;;;;5017498;28;20989;-86
2021/12/15 03:26:01;;;;;;;108.05;41.35;;;10.10;99.90;;;;;;4987430;28;20415;-86
2021/12/15 03:34:11;;;;;;;111.18;39.45;;;10.10;99.90;;;;;;5008436;28;20111;-85
2021/12/15 03:37:07;;;;;;;118.55;41.80;;;10.10;99.90;;;;;;4989058;28;20576;-86
2021/12/15 03:39:43;;;;;;;120.82;42.47;;;10.10;99.90;;;;;;5006835;28;20051;-85
2021/12/15 03:42:13;;;;;;;111.45;42.50;;;10.10;99.90;;;;;;5006666;28;20059;-86
2021/12/15 03:44:42;;;;;;;119.75;41.72;;;10.10;99.90;;;;;;4985918;28;20795;-86
2021/12/15 03:47:11;;;;;;;116.95;43.10;;;10.10;99.90;;;;;;5000312;28;20067;-86
2021/12/15 03:49:37;;;;;;;120.15;43.08;;;10.10;99.90;;;;;;4990334;28;20462;-86
2021/12/15 03:52:06;;;;;;;130.70;44.45;;;10.10;99.90;;;;;;5004335;28;20099;-86
2021/12/15 03:54:32;;;;;;;131.93;43.42;;;10.10;99.90;;;;;;4984929;28;20126;-87
2021/12/15 03:56:58;;;;;;;123.72;44.75;;;10.10;99.90;;;;;;4988251;28;20043;-86
2021/12/15 03:59:25;;;;;;;133.18;45.38;;;10.10;99.90;;;;;;4983314;28;20551;-87
2021/12/15 04:01:51;;;;;;;133.10;45.72;;;10.10;99.90;;;;;;5001263;28;20059;-87
2021/12/15 04:04:17;;;;;;;137.05;46.33;;;10.10;99.90;;;;;;4984791;28;20070;-86
2021/12/15 04:06:44;;;;;;;135.98;46.95;;;10.10;99.90;;;;;;4987964;28;20043;-87
2021/12/15 04:09:12;;;;;;;138.30;45.83;;;10.10;99.90;;;;;;5005958;28;20130;-86
2021/12/15 04:11:39;;;;;;;135.48;45.88;;;10.10;99.90;;;;;;4990971;28;20473;-87
2021/12/15 04:14:18;;;;;;;136.77;47.95;;;10.10;99.90;;;;;;5006201;28;20849;-85
2021/12/15 04:16:57;;;;;;;142.45;47.67;;;10.10;99.90;;;;;;5004939;28;20067;-86
2021/12/15 04:19:23;;;;;;;138.32;47.97;;;10.10;99.90;;;;;;5000023;28;20066;-85
2021/12/15 04:21:50;;;;;;;145.05;49.42;;;10.10;99.90;;;;;;4983433;28;20158;-85
2021/12/15 04:24:17;;;;;;;150.80;50.22;;;10.10;99.90;;;;;;4988379;28;20727;-86
2021/12/15 04:26:46;;;;;;;146.50;50.38;;;10.00;99.90;;;;;;4987929;28;20305;-85
2021/12/15 04:29:12;;;;;;;152.27;50.67;;;10.00;99.90;;;;;;5003285;28;20710;-85
2021/12/15 04:31:42;;;;;;;156.68;51.25;;;10.00;99.90;;;;;;4973757;28;20485;-86
2021/12/15 04:34:11;;;;;;;169.85;53.25;;;10.00;99.90;;;;;;5001641;28;20836;-86
2021/12/15 04:36:40;;;;;;;157.93;51.17;;;10.10;99.90;;;;;;4980980;28;20047;-86
2021/12/15 04:39:10;;;;;;;159.52;53.25;;;10.00;99.90;;;;;;5009777;28;20047;-85
2021/12/15 04:41:36;;;;;;;168.82;53.00;;;10.10;99.90;;;;;;5004648;28;20100;-86
2021/12/15 04:44:11;;;;;;;168.45;54.60;;;10.10;99.90;;;;;;5005352;28;20568;-85
2021/12/15 04:46:41;;;;;;;171.57;54.25;;;10.00;99.90;;;;;;5016082;28;20428;-86
2021/12/15 04:49:09;;;;;;;162.30;55.20;;;10.10;99.90;;;;;;5008266;28;20107;-85
2021/12/15 04:51:35;;;;;;;172.60;54.65;;;10.00;99.90;;;;;;5003232;28;20584;-85
2021/12/15 04:54:01;;;;;;;170.10;56.03;;;10.00;99.90;;;;;;5002988;28;20508;-86
2021/12/15 04:56:27;;;;;;;176.98;56.60;;;10.00;99.90;;;;;;4986118;28;20062;-86
2021/12/15 04:58:55;;;;;;;174.20;55.78;;;10.00;99.90;;;;;;4978417;28;20749;-86
2021/12/15 05:01:22;;;;;;;174.50;56.88;;;10.00;99.90;;;;;;5013398;28;20761;-85
2021/12/15 05:03:48;;;;;;;175.20;55.65;;;10.00;99.90;;;;;;5005928;28;20048;-86
2021/12/15 05:06:14;;;;;;;171.60;56.90;;;10.00;99.90;;;;;;5011693;28;20040;-85
2021/12/15 05:08:41;;;;;;;161.50;55.15;;;10.00;99.90;;;;;;4989910;28;20427;-86
2021/12/15 05:11:11;;;;;;;170.05;57.15;;;10.00;99.90;;;;;;5004569;28;20267;-85
2021/12/15 05:13:37;;;;;;;174.27;57.33;;;10.00;99.90;;;;;;4990767;28;20492;-85
2021/12/15 05:16:05;;;;;;;164.82;57.03;;;10.00;99.90;;;;;;4987019;28;20082;-86
2021/12/15 05:18:32;;;;;;;166.50;57.95;;;10.00;99.90;;;;;;5024609;28;20039;-87
2021/12/15 05:20:59;;;;;;;164.38;56.45;;;10.10;99.90;;;;;;5004463;28;20071;-84
2021/12/15 05:23:30;;;;;;;160.00;56.45;;;10.00;99.90;;;;;;5010676;28;20130;-86
2021/12/15 05:25:57;;;;;;;156.57;56.15;;;10.00;99.90;;;;;;4986914;28;20059;-85
2021/12/15 05:28:23;;;;;;;155.30;55.85;;;10.00;99.90;;;;;;5006049;28;20047;-87
2021/12/15 05:30:49;;;;;;;156.73;58.05;;;10.00;99.90;;;;;;5010124;28;20054;-87
2021/12/15 05:33:15;;;;;;;153.98;56.13;;;10.00;99.90;;;;;;4981715;28;20071;-85
2021/12/15 05:35:42;;;;;;;162.48;57.42;;;10.00;99.90;;;;;;4973108;28;20224;-86
2021/12/15 05:38:09;;;;;;;150.75;54.90;;;10.00;99.90;;;;;;5003146;28;20060;-86
2021/12/15 05:40:35;;;;;;;156.65;55.90;;;10.00;99.90;;;;;;5002762;28;20047;-84
2021/12/15 05:43:02;;;;;;;162.90;56.78;;;10.00;99.90;;;;;;5007718;28;20569;-85
2021/12/15 05:45:31;;;;;;;161.60;58.20;;;10.00;99.90;;;;;;4988065;28;20242;-87
2021/12/15 05:47:58;;;;;;;147.18;56.97;;;10.00;99.90;;;;;;4984280;28;20077;-86
2021/12/15 05:50:27;;;;;;;149.32;55.25;;;10.00;99.90;;;;;;4982093;28;20158;-86
2021/12/15 05:52:55;;;;;;;154.68;55.28;;;10.00;99.90;;;;;;4998031;28;20044;-86
2021/12/15 05:55:21;;;;;;;149.82;56.40;;;10.00;99.90;;;;;;4983389;28;20051;-86
2021/12/15 05:57:46;;;;;;;151.88;56.83;;;10.00;99.90;;;;;;4974742;28;20210;-86
2021/12/15 06:00:34;;;;;;;153.65;56.90;;;10.00;99.90;;;;;;4964633;28;20576;-87
2021/12/15 06:03:01;;;;;;;154.55;57.03;;;10.00;99.90;;;;;;5007258;28;20081;-86
2021/12/15 06:05:26;;;;;;;148.93;55.03;;;10.00;99.90;;;;;;5004943;28;20051;-85
2021/12/15 06:07:52;;;;;;;153.32;56.78;;;10.00;99.90;;;;;;5004625;28;20058;-85
2021/12/15 06:10:26;;;;;;;150.52;55.28;;;10.00;99.90;;;;;;4985976;28;20682;-85
2021/12/15 06:12:55;;;;;;;149.95;55.25;;;10.00;99.90;;;;;;5010497;28;20516;-86
2021/12/15 06:15:23;;;;;;;158.70;55.85;;;10.00;99.90;;;;;;5003050;28;20058;-86
2021/12/15 06:18:00;;;;;;;158.63;57.83;;;10.00;99.90;;;;;;4981827;28;20067;-84
2021/12/15 06:20:28;;;;;;;148.23;56.15;;;10.00;99.90;;;;;;4971243;28;20052;-86
2021/12/15 06:22:55;;;;;;;152.93;55.50;;;10.00;99.90;;;;;;4975529;28;20124;-87
2021/12/15 06:25:22;;;;;;;154.10;56.50;;;10.00;99.90;;;;;;4966388;28;20154;-84
2021/12/15 06:27:48;;;;;;;154.57;55.92;;;10.00;99.90;;;;;;4989508;28;20505;-85
2021/12/15 06:30:14;;;;;;;142.32;54.85;;;10.00;99.90;;;;;;4974454;28;20044;-85
2021/12/15 06:32:41;;;;;;;148.77;55.55;;;10.00;99.90;;;;;;4970374;28;20248;-84
2021/12/15 06:35:07;;;;;;;152.00;57.25;;;10.00;99.90;;;;;;4982403;28;20886;-85
2021/12/15 06:37:34;;;;;;;153.55;53.97;;;10.00;99.90;;;;;;4969154;28;20063;-86
2021/12/15 06:40:07;;;;;;;142.73;57.45;;;10.00;99.90;;;;;;4994206;28;20533;-85
2021/12/15 06:42:33;;;;;;;147.02;56.78;;;10.00;99.90;;;;;;4992184;28;20060;-84
2021/12/15 06:44:59;;;;;;;145.48;54.35;;;10.00;99.90;;;;;;4983992;28;20136;-86
2021/12/15 06:58:11;;;;;;;;;;;10.00;99.90;;;;;;4986304;28;20083;-85
2021/12/15 07:00:42;;;;;;;141.05;54.80;;;10.00;99.90;;;;;;4970158;28;20466;-85
2021/12/15 07:03:08;;;;;;;143.90;55.15;;;10.00;99.90;;;;;;4986042;28;20600;-86
2021/12/15 07:05:35;;;;;;;143.90;54.85;;;10.00;99.90;;;;;;4986384;28;20508;-86
2021/12/15 07:08:04;;;;;;;146.95;53.28;;;10.00;99.90;;;;;;4990019;28;20784;-87
2021/12/15 07:10:32;;;;;;;137.35;56.63;;;10.10;99.90;;;;;;4957397;28;20094;-86
2021/12/15 07:12:59;;;;;;;142.02;52.45;;;10.00;99.90;;;;;;4975314;28;20511;-86
2021/12/15 07:15:26;;;;;;;140.68;52.65;;;10.00;99.90;;;;;;4938205;28;20061;-86
2021/12/15 07:18:00;;;;;;;147.63;53.92;;;10.10;99.90;;;;;;4960695;28;20521;-87
2021/12/15 07:20:35;;;;;;;143.25;53.75;;;10.00;99.90;;;;;;4977599;28;20496;-86
2021/12/15 07:23:04;;;;;;;143.43;52.88;;;10.00;99.90;;;;;;4997920;28;20359;-84
2021/12/15 07:25:31;;;;;;;142.70;52.03;;;10.00;99.90;;;;;;4978853;28;20369;-86
2021/12/15 07:27:58;;;;;;;144.38;51.80;;;10.00;99.90;;;;;;4984364;28;20036;-86
2021/12/15 07:30:26;;;;;;;136.57;51.80;;;10.00;99.90;;;;;;4978341;28;20048;-86
2021/12/15 07:32:52;;;;;;;143.98;52.25;;;10.00;99.90;;;;;;4987050;28;20460;-87
2021/12/15 07:35:20;;;;;;;127.38;50.85;;;10.00;99.90;;;;;;4987899;28;20629;-85
2021/12/15 07:37:46;;;;;;;135.70;51.58;;;10.00;99.90;;;;;;4985619;28;20055;-85
2021/12/15 07:40:20;;;;;;;131.10;52.88;;;10.00;99.90;;;;;;4963097;28;20120;-86
2021/12/15 07:43:13;;;;;;;142.32;52.25;;;10.10;99.90;;;;;;4988517;28;20047;-86
2021/12/15 07:45:43;;;;;;;132.02;52.05;;;10.10;99.90;;;;;;4965045;28;20516;-87
2021/12/15 07:48:12;;;;;;;142.48;51.97;;;10.10;99.90;;;;;;4988866;28;20428;-84
2021/12/15 07:50:39;;;;;;;141.80;51.95;;;10.10;99.90;;;;;;4985624;28;20036;-86
2021/12/15 07:53:06;;;;;;;131.18;52.33;;;10.10;99.90;;;;;;4968288;28;20480;-86
2021/12/15 07:55:32;;;;;;;133.63;52.15;;;10.10;99.90;;;;;;4974198;28;20048;-86
2021/12/15 07:58:02;;;;;;;139.15;51.63;;;10.10;99.90;;;;;;4967831;28;20765;-87
2021/12/15 08:00:29;;;;;;;130.85;50.78;;;10.10;99.90;;;;;;4969776;28;20562;-87
2021/12/15 08:02:55;;;;;;;136.50;52.83;;;10.10;99.90;;;;;;4991231;28;20055;-87
2021/12/15 08:05:22;;;;;;;134.30;50.45;;;10.10;99.90;;;;;;4986002;28;20076;-86
2021/12/15 08:07:48;;;;;;;131.70;51.80;;;10.10;99.90;;;;;;4965280;28;20516;-86
2021/12/15 08:10:15;;;;;;;126.60;49.97;;;10.10;99.90;;;;;;4985298;28;20443;-86
2021/12/15 08:12:45;;;;;;;128.23;49.63;;;10.10;99.90;;;;;;4985407;28;20079;-86
2021/12/15 08:15:12;;;;;;;133.65;49.95;;;10.10;99.90;;;;;;4969519;28;20044;-86
2021/12/15 08:17:39;;;;;;;133.07;49.55;;;10.10;99.90;;;;;;4984100;28;20633;-86
2021/12/15 08:20:11;;;;;;;140.80;50.40;;;10.20;99.90;;;;;;4978387;28;20151;-85
2021/12/15 08:22:40;;;;;;;133.40;49.13;;;10.20;99.90;;;;;;4985291;28;20081;-86
2021/12/15 08:25:08;;;;;;;137.80;51.65;;;10.20;99.90;;;;;;4986822;28;20120;-86
2021/12/15 08:27:34;;;;;;;130.90;48.70;;;10.10;99.90;;;;;;4985255;28;20071;-86
2021/12/15 08:30:00;;;;;;;128.60;50.35;;;10.20;99.90;;;;;;4965432;28;20844;-86
2021/12/15 08:32:26;;;;;;;132.35;49.38;;;10.20;99.90;;;;;;4994888;28;20133;-86
2021/12/15 08:34:52;;;;;;;129.02;49.72;;;10.20;99.90;;;;;;4985817;28;20045;-85
2021/12/15 08:37:18;;;;;;;131.82;50.28;;;10.20;99.90;;;;;;4969864;28;20146;-86
2021/12/15 08:39:45;;;;;;;143.50;52.20;;;10.20;99.90;;;;;;4994741;28;20079;-87
2021/12/15 08:42:12;;;;;;;132.90;49.55;;;10.30;99.90;;;;;;4991851;28;20131;-86
2021/12/15 08:44:39;;;;;;;123.55;48.60;;;10.20;99.90;;;;;;4984605;28;20056;-86
2021/12/15 08:47:07;;;;;;;132.02;48.72;;;10.20;99.90;;;;;;4990422;28;20503;-87
2021/12/15 08:49:34;;;;;;;144.95;50.60;;;10.30;99.90;;;;;;4972440;28;20052;-87
2021/12/15 08:52:00;;;;;;;133.63;49.90;;;10.30;99.90;;;;;;4987972;28;20618;-87
2021/12/15 08:54:26;;;;;;;130.48;49.50;;;10.30;99.90;;;;;;4980769;28;20809;-86
2021/12/15 08:56:53;;;;;;;123.18;48.65;;;10.30;99.90;;;;;;4980316;28;20499;-86
2021/12/15 08:59:19;;;;;;;123.68;45.92;;;10.30;99.90;;;;;;4967710;28;20392;-87
2021/12/15 09:01:46;;;;;;;133.40;49.60;;;10.30;99.90;;;;;;4995994;28;20105;-85
2021/12/15 09:04:13;;;;;;;133.45;48.38;;;10.30;99.90;;;;;;4986464;28;20052;-87
2021/12/15 09:06:42;;;;;;;130.20;48.03;;;10.30;99.90;;;;;;4987807;28;20483;-86
2021/12/15 09:09:11;;;;;;;122.80;47.50;;;10.40;99.90;;;;;;4960791;28;20321;-85
2021/12/15 09:11:37;;;;;;;126.13;47.00;;;10.40;99.90;;;;;;4987574;28;20489;-85
2021/12/15 09:14:04;;;;;;;129.07;46.60;;;10.40;99.90;;;;;;5005721;28;20771;-85
2021/12/15 09:16:32;;;;;;;123.78;45.80;;;10.40;99.90;;;;;;4982176;28;20067;-86
2021/12/15 09:18:59;;;;;;;124.22;48.40;;;10.40;99.90;;;;;;4989490;28;20055;-86
2021/12/15 09:21:28;;;;;;;120.35;45.38;;;10.40;99.90;;;;;;4986867;28;20116;-87
2021/12/15 09:23:55;;;;;;;120.07;48.85;;;10.40;99.90;;;;;;5012428;28;20054;-86
2021/12/15 09:26:21;;;;;;;120.30;46.25;;;10.40;99.90;;;;;;4980576;28;20055;-86
2021/12/15 09:28:48;;;;;;;117.93;45.80;;;10.40;99.90;;;;;;4998856;28;20466;-86
2021/12/15 09:31:16;;;;;;;115.32;45.72;;;10.40;99.90;;;;;;4996040;28;20794;-86
2021/12/15 09:33:50;;;;;;;116.47;44.38;;;10.40;99.90;;;;;;5008762;28;20035;-86
2021/12/15 09:36:17;;;;;;;117.45;45.40;;;10.40;99.90;;;;;;4983571;28;20070;-86
2021/12/15 09:38:49;;;;;;;126.95;46.78;;;10.40;99.90;;;;;;4997153;28;20559;-87
2021/12/15 09:41:23;;;;;;;123.28;45.25;;;10.40;99.90;;;;;;4996979;28;20048;-85
2021/12/15 09:43:54;;;;;;;123.72;46.40;;;10.50;99.90;;;;;;5004039;28;20073;-85
2021/12/15 09:46:32;;;;;;;117.10;45.13;;;10.60;99.90;;;;;;4996959;28;20458;-89
2021/12/15 10:02:41;;;;;;;109.90;42.33;;;10.70;99.90;;;;;;5011745;28;20058;-86
2021/12/15 10:05:25;;;;;;;116.95;44.33;;;10.70;99.90;;;;;;4982390;28;20043;-86
2021/12/15 10:18:43;;;;;;;104.60;43.25;;;10.80;99.90;;;;;;5008058;28;20728;-84
2021/12/15 10:21:24;;;;;;;107.93;42.50;;;10.80;99.90;;;;;;4985557;28;20455;-86
2021/12/15 10:23:51;;;;;;;102.00;42.55;;;10.80;99.90;;;;;;5006770;28;20533;-85
2021/12/15 10:26:18;;;;;;;96.47;40.88;;;10.80;99.90;;;;;;4988953;28;20175;-87
2021/12/15 10:28:49;;;;;;;105.05;43.72;;;10.80;99.90;;;;;;5005940;28;20905;-86
2021/12/15 10:31:16;;;;;;;109.10;43.47;;;10.90;99.90;;;;;;4974578;28;20927;-86
2021/12/15 10:33:50;;;;;;;105.05;42.45;;;10.90;99.90;;;;;;5004464;28;20109;-85
2021/12/15 10:36:20;;;;;;;102.22;42.28;;;10.90;99.90;;;;;;5007089;28;20125;-87
2021/12/15 10:38:51;;;;;;;104.80;42.95;;;10.90;99.90;;;;;;5009493;28;20047;-88
2021/12/15 10:41:21;;;;;;;95.18;41.85;;;11.00;99.90;;;;;;4985826;28;20036;-87
2021/12/15 10:43:55;;;;;;;99.55;41.75;;;11.00;99.90;;;;;;5013627;28;20079;-84
2021/12/15 10:46:27;;;;;;;106.00;42.38;;;11.10;99.90;;;;;;4990684;28;20043;-86
2021/12/15 10:49:16;;;;;;;95.90;41.90;;;11.20;99.90;;;;;;5009376;28;20944;-86
2021/12/15 10:52:06;;;;;;;86.30;38.70;;;11.10;99.90;;;;;;5007516;28;20184;-86
2021/12/15 10:54:39;;;;;;;88.55;39.55;;;11.10;99.90;;;;;;5007454;28;20242;-88
2021/12/15 10:57:08;;;;;;;91.68;39.75;;;11.20;99.90;;;;;;4989474;28;20047;-85
2021/12/15 10:59:43;;;;;;;87.10;38.13;;;11.30;99.90;;;;;;4988883;28;20048;-84
2021/12/15 11:02:10;;;;;;;80.95;37.25;;;11.30;99.90;;;;;;4984938;28;20374;-85
2021/12/15 11:04:42;;;;;;;63.83;33.03;;;11.30;99.90;;;;;;5003309;28;20201;-84
2021/12/15 11:07:15;;;;;;;65.60;33.42;;;11.30;99.90;;;;;;5010603;28;20798;-83
2021/12/15 11:09:42;;;;;;;67.65;33.80;;;11.30;99.90;;;;;;5005977;28;20086;-84
2021/12/15 11:12:14;;;;;;;65.85;33.30;;;11.40;99.90;;;;;;5001715;28;20051;-88
2021/12/15 11:14:45;;;;;;;58.90;32.47;;;11.40;99.90;;;;;;5001039;28;20040;-86
2021/12/15 11:17:17;;;;;;;61.67;33.38;;;11.40;99.90;;;;;;4985223;28;20043;-84
2021/12/15 11:19:48;;;;;;;62.13;32.80;;;11.40;99.90;;;;;;5014687;28;20587;-86
2021/12/15 11:22:31;;;;;;;62.35;33.33;;;11.40;99.90;;;;;;4990567;28;20516;-85
2021/12/15 11:24:57;;;;;;;70.72;35.78;;;11.30;99.90;;;;;;5012319;28;20051;-86
2021/12/15 11:27:23;;;;;;;65.80;34.58;;;11.30;99.90;;;;;;4996230;28;20412;-86
2021/12/15 11:29:49;;;;;;;67.68;33.60;;;11.30;99.90;;;;;;4993024;28;20048;-86
2021/12/15 11:32:35;;;;;;;67.88;33.35;;;11.20;99.90;;;;;;4984943;28;20050;-86
2021/12/15 11:35:17;;;;;;;66.03;33.83;;;11.30;99.90;;;;;;4995352;28;20147;-87
2021/12/15 11:37:47;;;;;;;65.78;34.63;;;11.40;99.90;;;;;;5007858;28;20094;-85
2021/12/15 11:40:16;;;;;;;59.72;33.40;;;11.50;99.90;;;;;;5007423;28;20743;-86
2021/12/15 11:42:44;;;;;;;58.53;32.28;;;11.50;99.90;;;;;;5007670;28;20134;-86
2021/12/15 11:45:12;;;;;;;58.53;31.30;;;11.50;99.90;;;;;;4985932;28;20082;-84
2021/12/15 11:47:38;;;;;;;59.35;32.28;;;11.50;99.90;;;;;;5008849;28;20132;-86
2021/12/15 11:50:10;;;;;;;60.83;31.55;;;11.50;99.90;;;;;;5009645;28;20838;-86
2021/12/15 11:52:40;;;;;;;59.33;32.17;;;11.50;99.90;;;;;;5022516;28;20058;-85
2021/12/15 11:55:07;;;;;;;60.28;31.05;;;11.50;99.90;;;;;;5007609;28;20284;-87
2021/12/15 11:57:35;;;;;;;57.78;31.45;;;11.50;99.90;;;;;;4980212;28;20055;-84
2021/12/15 12:00:14;;;;;;;53.53;30.27;;;11.40;99.90;;;;;;5006164;28;20043;-86
2021/12/15 12:02:48;;;;;;;58.03;31.33;;;11.40;99.90;;;;;;5001850;28;20881;-84
2021/12/15 12:05:25;;;;;;;58.10;30.48;;;11.40;99.90;;;;;;5006677;28;20044;-84
2021/12/15 12:07:58;;;;;;;53.42;30.60;;;11.50;99.90;;;;;;4999829;28;20327;-85
2021/12/15 12:10:35;;;;;;;50.30;28.60;;;11.50;99.90;;;;;;5004595;28;20801;-86
2021/12/15 12:13:14;;;;;;;48.15;28.23;;;11.60;99.90;;;;;;4996280;28;20048;-85
2021/12/15 12:15:42;;;;;;;50.10;29.40;;;11.60;99.90;;;;;;5002513;28;21094;-83
2021/12/15 12:18:18;;;;;;;51.67;28.25;;;11.60;99.90;;;;;;5005310;28;20055;-84
2021/12/15 12:20:53;;;;;;;50.53;28.00;;;11.60;99.90;;;;;;4984858;28;20048;-86
2021/12/15 12:23:22;;;;;;;46.10;27.48;;;11.60;99.90;;;;;;4989205;28;20520;-87
2021/12/15 12:25:51;;;;;;;43.58;26.05;;;11.60;99.90;;;;;;5006905;28;20813;-86
2021/12/15 12:28:24;;;;;;;46.92;26.63;;;11.60;99.90;;;;;;4983415;28;20607;-86
2021/12/15 12:31:15;;;;;;;42.72;26.30;;;11.60;99.90;;;;;;5002152;28;20395;-87
2021/12/15 12:33:41;;;;;;;48.10;26.77;;;11.50;99.90;;;;;;5009656;28;20505;-87
2021/12/15 12:36:15;;;;;;;46.72;27.77;;;11.40;99.90;;;;;;5002300;28;20048;-86
2021/12/15 12:38:46;;;;;;;;;;;11.40;99.90;;;;;;5007778;28;20048;-85
2021/12/15 12:41:16;;;;;;;49.95;27.67;;;11.40;99.90;;;;;;5000832;28;19938;-85
2021/12/15 12:43:48;;;;;;;48.38;27.83;;;11.40;99.90;;;;;;4984791;28;20044;-86
2021/12/15 12:46:41;;;;;;;45.35;26.77;;;11.40;99.90;;;;;;5001386;28;20517;-87
2021/12/15 13:00:23;;;;;;;47.72;27.98;;;11.30;99.90;;;;;;5000272;28;20625;-86
2021/12/15 13:03:19;;;;;;;50.58;28.35;;;11.30;99.90;;;;;;5003694;28;20094;-89
2021/12/15 13:05:53;;;;;;;47.80;27.88;;;11.20;99.90;;;;;;5014047;28;20505;-84
2021/12/15 13:08:37;;;;;;;48.83;28.50;;;11.20;99.90;;;;;;5003766;28;20052;-86
2021/12/15 13:11:05;;;;;;;45.72;28.65;;;11.20;99.90;;;;;;5005556;28;20497;-86
2021/12/15 13:13:36;;;;;;;46.22;27.90;;;11.20;99.90;;;;;;5002469;28;20043;-86
2021/12/15 13:16:09;;;;;;;50.20;28.50;;;11.20;99.90;;;;;;4993423;28;20112;-85
2021/12/15 13:18:43;;;;;;;49.10;28.30;;;11.20;99.90;;;;;;5001216;28;20821;-85
2021/12/15 13:21:12;;;;;;;42.35;26.50;;;11.20;99.90;;;;;;4981035;28;20402;-84
2021/12/15 13:23:48;;;;;;;44.28;26.42;;;11.20;99.90;;;;;;5002954;28;20850;-85
2021/12/15 13:29:50;;;;;;;43.88;25.63;;;11.20;99.90;;;;;;5007700;28;20062;-85
2021/12/15 13:32:17;;;;;;;38.00;24.50;;;11.10;99.90;;;;;;5007705;28;20051;-86
2021/12/15 13:34:47;;;;;;;42.05;25.30;;;11.20;99.90;;;;;;5007212;28;20281;-85
2021/12/15 13:37:51;;;;;;;39.92;25.10;;;11.10;99.90;;;;;;5014327;28;21128;-86
2021/12/15 13:40:49;;;;;;;39.33;24.65;;;11.20;99.90;;;;;;5012405;28;20047;-86
2021/12/15 13:43:40;;;;;;;42.28;25.45;;;11.10;99.90;;;;;;5010220;28;20528;-85
2021/12/15 13:46:26;;;;;;;41.83;25.38;;;11.10;99.90;;;;;;4985019;28;20100;-85
2021/12/15 13:49:00;;;;;;;40.67;25.02;;;11.20;99.90;;;;;;5007480;28;20238;-85
2021/12/15 13:51:52;;;;;;;42.60;24.75;;;11.10;99.90;;;;;;5005381;28;20472;-84
2021/12/15 13:54:34;;;;;;;38.42;24.45;;;11.10;99.90;;;;;;5004900;28;20127;-85
2021/12/15 13:57:09;;;;;;;41.40;25.20;;;11.10;99.90;;;;;;5012801;28;20119;-85
2021/12/15 13:59:38;;;;;;;27.77;16.67;;;11.10;99.90;;;;;;4993708;28;20047;-84